createdAt,value
2018-05-14T00:01:18.339Z,20.88
2018-05-14T00:03:46.730Z,21.00
2018-05-14T00:06:15.041Z,20.95
2018-05-14T00:08:43.403Z,20.77
2018-05-14T00:11:12.494Z,20.86
2018-05-14T00:13:41.682Z,20.78
2018-05-14T00:16:10.005Z,20.76
2018-05-14T00:18:38.402Z,20.70
2018-05-14T00:21:06.784Z,20.53
2018-05-14T00:23:35.117Z,20.54
2018-05-14T00:26:04.201Z,20.56
2018-05-14T00:28:33.301Z,20.43
2018-05-14T00:31:02.467Z,20.44
2018-05-14T00:33:30.775Z,20.41
2018-05-14T00:35:59.211Z,20.50
2018-05-14T00:38:27.563Z,20.49
2018-05-14T00:40:55.875Z,20.42
2018-05-14T00:43:24.243Z,20.29
2018-05-14T00:45:52.571Z,20.25
2018-05-14T00:48:21.670Z,20.28
2018-05-14T00:50:50.770Z,20.33
2018-05-14T00:53:19.842Z,20.23
2018-05-14T00:55:48.169Z,20.16
2018-05-14T00:58:16.576Z,20.18
2018-05-14T01:00:44.909Z,20.40
2018-05-14T01:03:14.025Z,20.41
2018-05-14T01:05:42.356Z,20.29
2018-05-14T01:08:10.729Z,20.30
2018-05-14T01:10:39.139Z,20.27
2018-05-14T01:13:07.550Z,20.32
2018-05-14T01:15:36.617Z,20.35
2018-05-14T01:18:04.950Z,20.22
2018-05-14T01:20:33.692Z,20.16
2018-05-14T01:23:02.015Z,20.11
2018-05-14T01:25:30.363Z,20.20
2018-05-14T01:27:58.735Z,20.09
2018-05-14T01:30:27.051Z,20.09
2018-05-14T01:32:55.408Z,20.00
2018-05-14T01:35:23.770Z,20.08
2018-05-14T01:37:52.101Z,20.02
2018-05-14T01:40:20.421Z,20.06
2018-05-14T01:42:50.023Z,20.12
2018-05-14T01:45:18.867Z,19.97
2018-05-14T01:47:47.199Z,19.86
2018-05-14T01:50:15.527Z,19.90
2018-05-14T01:52:43.826Z,19.84
2018-05-14T01:55:12.133Z,19.90
2018-05-14T01:57:40.460Z,19.81
2018-05-14T02:00:08.854Z,19.81
2018-05-14T02:02:37.173Z,19.75
2018-05-14T02:05:05.927Z,19.76
2018-05-14T02:07:34.258Z,19.79
2018-05-14T02:10:02.606Z,19.63
2018-05-14T02:12:31.840Z,19.57
2018-05-14T02:15:00.170Z,19.64
2018-05-14T02:17:29.257Z,19.56
2018-05-14T02:19:57.609Z,19.49
2018-05-14T02:22:25.939Z,19.61
2018-05-14T02:24:55.028Z,19.55
2018-05-14T02:27:24.727Z,19.65
2018-05-14T02:29:53.048Z,19.64
2018-05-14T02:32:21.383Z,19.42
2018-05-14T02:34:50.528Z,19.44
2018-05-14T02:37:18.859Z,19.34
2018-05-14T02:39:47.184Z,19.39
2018-05-14T02:42:15.523Z,19.25
2018-05-14T02:44:44.603Z,19.32
2018-05-14T02:47:12.920Z,19.34
2018-05-14T02:49:41.879Z,19.46
2018-05-14T02:52:10.220Z,19.39
2018-05-14T02:54:38.563Z,19.34
2018-05-14T02:57:06.939Z,19.26
2018-05-14T02:59:35.249Z,19.29
2018-05-14T03:02:03.593Z,19.16
2018-05-14T03:04:32.707Z,19.28
2018-05-14T03:07:01.021Z,19.17
2018-05-14T03:09:29.338Z,19.33
2018-05-14T03:11:58.847Z,19.33
2018-05-14T03:14:28.115Z,19.16
2018-05-14T03:16:56.667Z,19.13
2018-05-14T03:19:25.012Z,19.21
2018-05-14T03:21:54.095Z,19.03
2018-05-14T03:24:23.184Z,18.99
2018-05-14T03:26:51.509Z,19.12
2018-05-14T03:29:19.895Z,19.08
2018-05-14T03:31:48.200Z,19.00
2018-05-14T03:34:16.807Z,19.19
2018-05-14T03:36:45.107Z,19.14
2018-05-14T03:39:14.182Z,19.39
2018-05-14T03:41:42.561Z,19.30
2018-05-14T03:44:10.880Z,19.27
2018-05-14T03:46:39.234Z,19.17
2018-05-14T03:49:07.605Z,19.32
2018-05-14T03:51:36.712Z,19.25
2018-05-14T03:54:05.807Z,19.28
2018-05-14T03:56:35.460Z,19.15
2018-05-14T03:59:21.484Z,19.15
2018-05-14T04:02:21.392Z,19.09
2018-05-14T04:05:07.232Z,18.83
2018-05-14T04:07:35.602Z,19.10
2018-05-14T04:10:04.677Z,19.13
2018-05-14T04:12:33.002Z,19.35
2018-05-14T04:15:02.213Z,19.39
2018-05-14T04:17:30.561Z,19.22
2018-05-14T04:19:58.897Z,19.06
2018-05-14T04:22:27.225Z,19.31
2018-05-14T04:24:55.543Z,19.39
2018-05-14T04:27:23.867Z,19.57
2018-05-14T04:29:52.994Z,19.61
2018-05-14T04:32:21.331Z,19.47
2018-05-14T04:34:49.647Z,19.54
2018-05-14T04:37:18.127Z,19.71
2018-05-14T04:39:46.439Z,19.85
2018-05-14T04:42:14.758Z,19.81
2018-05-14T04:44:43.843Z,19.74
2018-05-14T04:47:12.231Z,19.76
2018-05-14T04:49:40.488Z,19.81
2018-05-14T04:52:08.839Z,19.76
2018-05-14T04:54:37.150Z,19.91
2018-05-14T04:57:05.471Z,20.10
2018-05-14T04:59:34.012Z,20.25
2018-05-14T05:02:02.383Z,20.38
2018-05-14T05:04:30.701Z,20.47
2018-05-14T05:06:59.074Z,20.62
2018-05-14T05:09:27.409Z,20.77
2018-05-14T05:11:55.733Z,20.90
2018-05-14T05:14:24.862Z,20.83
2018-05-14T05:16:53.174Z,20.86
2018-05-14T05:19:21.520Z,20.98
2018-05-14T05:21:50.097Z,21.13
2018-05-14T05:24:18.443Z,21.18
2018-05-14T05:26:46.790Z,21.28
2018-05-14T05:29:15.155Z,21.42
2018-05-14T05:31:43.495Z,21.53
2018-05-14T05:34:11.827Z,21.68
2018-05-14T05:36:40.230Z,21.69
2018-05-14T05:39:09.345Z,21.74
2018-05-14T05:41:37.717Z,21.73
2018-05-14T05:44:06.895Z,21.91
2018-05-14T05:46:35.263Z,22.01
2018-05-14T05:49:03.611Z,21.96
2018-05-14T05:51:32.740Z,22.07
2018-05-14T05:54:01.066Z,21.85
2018-05-14T05:56:29.397Z,21.90
2018-05-14T05:58:57.792Z,22.05
2018-05-14T06:01:26.166Z,22.23
2018-05-14T06:03:54.514Z,22.16
2018-05-14T06:06:23.273Z,22.27
2018-05-14T06:08:51.581Z,22.37
2018-05-14T06:11:19.920Z,22.16
2018-05-14T06:13:48.300Z,22.25
2018-05-14T06:16:16.666Z,22.47
2018-05-14T06:18:45.787Z,22.54
2018-05-14T06:21:14.140Z,22.64
2018-05-14T06:23:43.263Z,22.86
2018-05-14T06:26:11.637Z,22.82
2018-05-14T06:28:40.231Z,22.73
2018-05-14T06:31:08.580Z,22.88
2018-05-14T06:33:37.670Z,23.02
2018-05-14T06:36:06.771Z,23.26
2018-05-14T06:38:35.849Z,23.32
2018-05-14T06:41:04.215Z,23.33
2018-05-14T06:43:32.582Z,23.28
2018-05-14T06:46:00.963Z,23.59
2018-05-14T06:48:29.327Z,23.41
2018-05-14T06:50:58.159Z,23.68
2018-05-14T06:53:26.480Z,23.65
2018-05-14T06:55:54.892Z,23.74
2018-05-14T06:58:23.267Z,23.73
2018-05-14T07:00:51.615Z,23.94
2018-05-14T07:03:19.964Z,24.04
2018-05-14T07:05:48.311Z,24.15
2018-05-14T07:08:16.635Z,24.21
2018-05-14T07:10:45.743Z,24.39
2018-05-14T07:13:14.271Z,24.42
2018-05-14T07:15:42.587Z,24.50
2018-05-14T07:18:10.943Z,24.60
2018-05-14T07:20:39.287Z,24.78
2018-05-14T07:23:08.375Z,24.89
2018-05-14T07:25:36.702Z,24.94
2018-05-14T07:28:05.083Z,24.92
2018-05-14T07:30:33.383Z,25.30
2018-05-14T07:33:02.472Z,24.95
2018-05-14T07:35:31.719Z,25.07
2018-05-14T07:38:00.130Z,25.27
2018-05-14T07:40:28.515Z,25.64
2018-05-14T07:42:56.827Z,25.80
2018-05-14T07:45:25.150Z,25.48
2018-05-14T07:47:53.503Z,25.53
2018-05-14T07:50:21.860Z,25.65
2018-05-14T07:52:50.184Z,25.72
2018-05-14T07:55:18.501Z,25.92
2018-05-14T07:57:47.797Z,26.22
2018-05-14T08:00:16.143Z,26.46
2018-05-14T08:02:44.493Z,26.52
2018-05-14T08:05:12.856Z,26.34
2018-05-14T08:07:41.185Z,26.50
2018-05-14T08:10:09.535Z,26.75
2018-05-14T08:12:37.896Z,27.10
2018-05-14T08:15:06.243Z,27.23
2018-05-14T08:17:34.553Z,27.11
2018-05-14T08:20:03.084Z,27.58
2018-05-14T08:22:31.401Z,27.51
2018-05-14T08:24:59.740Z,27.62
2018-05-14T08:27:28.094Z,27.41
2018-05-14T08:29:56.433Z,27.59
2018-05-14T08:32:24.774Z,27.45
2018-05-14T08:34:53.135Z,27.80
2018-05-14T08:37:21.492Z,27.95
2018-05-14T08:39:50.041Z,27.91
2018-05-14T08:42:18.531Z,28.21
2018-05-14T08:44:47.607Z,28.45
2018-05-14T08:47:15.933Z,28.38
2018-05-14T08:49:44.278Z,28.69
2018-05-14T08:52:12.600Z,28.81
2018-05-14T08:54:40.984Z,28.88
2018-05-14T08:57:09.350Z,28.72
2018-05-14T08:59:37.660Z,29.21
2018-05-14T09:02:05.988Z,29.21
2018-05-14T09:04:34.980Z,29.61
2018-05-14T09:07:03.333Z,29.60
2018-05-14T09:09:31.659Z,29.53
2018-05-14T09:12:00.003Z,29.51
2018-05-14T09:14:29.089Z,29.58
2018-05-14T09:16:57.467Z,29.81
2018-05-14T09:19:25.904Z,29.96
2018-05-14T09:21:54.188Z,30.15
2018-05-14T09:24:22.521Z,29.99
2018-05-14T09:26:52.033Z,30.25
2018-05-14T09:29:21.102Z,30.35
2018-05-14T09:31:49.410Z,30.12
2018-05-14T09:34:18.543Z,30.12
2018-05-14T09:36:46.893Z,30.44
2018-05-14T09:39:15.208Z,30.68
2018-05-14T09:41:43.560Z,30.65
2018-05-14T09:44:11.871Z,30.71
2018-05-14T09:46:40.204Z,30.79
2018-05-14T09:49:08.840Z,30.76
2018-05-14T09:51:37.150Z,30.14
2018-05-14T09:54:05.456Z,30.45
2018-05-14T09:56:33.812Z,31.00
2018-05-14T09:59:02.905Z,31.03
2018-05-14T10:01:31.994Z,31.46
2018-05-14T10:04:01.129Z,30.78
2018-05-14T10:06:29.469Z,30.60
2018-05-14T10:08:57.847Z,31.00
2018-05-14T10:11:27.363Z,30.92
2018-05-14T10:13:56.456Z,31.03
2018-05-14T10:16:25.131Z,31.31
2018-05-14T10:18:53.550Z,31.21
2018-05-14T10:21:21.788Z,30.47
2018-05-14T10:23:50.140Z,30.64
2018-05-14T10:26:18.475Z,30.70
2018-05-14T10:28:47.569Z,30.42
2018-05-14T10:31:16.666Z,30.87
2018-05-14T10:33:46.255Z,31.18
2018-05-14T10:36:14.592Z,31.54
2018-05-14T10:38:42.921Z,32.10
2018-05-14T10:41:11.354Z,31.74
2018-05-14T10:43:39.682Z,31.99
2018-05-14T10:46:08.777Z,32.07
2018-05-14T10:48:37.885Z,32.16
2018-05-14T10:51:06.980Z,32.05
2018-05-14T10:53:36.057Z,32.10
2018-05-14T10:56:05.060Z,31.85
2018-05-14T10:58:33.447Z,32.20
2018-05-14T11:01:01.772Z,32.64
2018-05-14T11:03:30.112Z,33.09
2018-05-14T11:05:58.438Z,33.19
2018-05-14T11:08:26.771Z,32.58
2018-05-14T11:10:55.115Z,32.00
2018-05-14T11:13:23.435Z,31.17
2018-05-14T11:15:51.786Z,31.53
2018-05-14T11:18:20.358Z,31.52
2018-05-14T11:20:48.669Z,32.01
2018-05-14T11:23:16.981Z,32.33
2018-05-14T11:25:45.371Z,32.63
2018-05-14T11:28:13.681Z,32.17
2018-05-14T11:30:42.775Z,32.18
2018-05-14T11:33:11.135Z,32.10
2018-05-14T11:35:39.470Z,32.23
2018-05-14T11:38:07.784Z,32.55
2018-05-14T11:40:36.501Z,32.99
2018-05-14T11:43:05.645Z,33.10
2018-05-14T11:45:33.948Z,33.14
2018-05-14T11:48:02.297Z,33.12
2018-05-14T11:50:30.640Z,33.05
2018-05-14T11:52:59.746Z,33.19
2018-05-14T11:55:28.137Z,33.10
2018-05-14T11:57:56.535Z,33.51
2018-05-14T12:00:24.890Z,33.78
2018-05-14T12:02:53.484Z,33.96
2018-05-14T12:05:21.812Z,32.63
2018-05-14T12:07:50.160Z,32.13
2018-05-14T12:10:18.495Z,31.96
2018-05-14T12:12:46.817Z,31.92
2018-05-14T12:15:15.143Z,32.24
2018-05-14T12:17:44.272Z,31.76
2018-05-14T12:20:12.708Z,31.78
2018-05-14T12:22:41.051Z,31.93
2018-05-14T12:25:09.613Z,32.31
2018-05-14T12:27:37.945Z,32.44
2018-05-14T12:30:06.302Z,32.19
2018-05-14T12:32:35.462Z,32.12
2018-05-14T12:35:03.801Z,32.00
2018-05-14T12:37:32.125Z,31.56
2018-05-14T12:40:00.501Z,31.43
2018-05-14T12:42:28.836Z,31.87
2018-05-14T12:44:57.163Z,32.30
2018-05-14T12:47:25.833Z,32.74
2018-05-14T12:49:54.926Z,32.52
2018-05-14T12:52:24.034Z,32.49
2018-05-14T12:54:52.373Z,32.85
2018-05-14T12:57:20.694Z,33.45
2018-05-14T12:59:49.029Z,33.42
2018-05-14T13:02:17.380Z,33.11
2018-05-14T13:04:45.705Z,32.30
2018-05-14T13:07:14.798Z,32.32
2018-05-14T13:09:44.176Z,31.49
2018-05-14T13:12:12.533Z,31.12
2018-05-14T13:14:40.882Z,31.35
2018-05-14T13:17:09.258Z,30.81
2018-05-14T13:19:37.639Z,31.19
2018-05-14T13:22:06.736Z,31.93
2018-05-14T13:24:35.854Z,32.04
2018-05-14T13:27:04.185Z,31.49
2018-05-14T13:29:32.525Z,31.26
2018-05-14T13:32:01.155Z,31.44
2018-05-14T13:34:29.457Z,31.63
2018-05-14T13:36:58.576Z,30.68
2018-05-14T13:39:26.928Z,31.12
2018-05-14T13:41:55.231Z,31.23
2018-05-14T13:44:23.641Z,31.09
2018-05-14T13:46:51.973Z,31.43
2018-05-14T13:49:20.312Z,31.13
2018-05-14T13:51:48.660Z,31.07
2018-05-14T13:54:17.199Z,31.08
2018-05-14T13:56:45.582Z,31.47
2018-05-14T13:59:14.675Z,31.61
2018-05-14T14:01:43.807Z,31.69
2018-05-14T14:04:12.142Z,31.34
2018-05-14T14:06:40.501Z,31.59
2018-05-14T14:09:08.905Z,31.80
2018-05-14T14:11:37.249Z,31.83
2018-05-14T14:14:05.567Z,32.04
2018-05-14T14:16:34.923Z,31.87
2018-05-14T14:19:03.240Z,31.67
2018-05-14T14:21:32.383Z,31.73
2018-05-14T14:24:01.024Z,31.68
2018-05-14T14:26:29.165Z,31.47
2018-05-14T14:28:57.510Z,31.48
2018-05-14T14:31:25.885Z,31.14
2018-05-14T14:33:54.227Z,30.86
2018-05-14T14:36:23.409Z,30.25
2018-05-14T14:38:51.783Z,30.49
2018-05-14T14:41:20.076Z,30.93
2018-05-14T14:43:48.438Z,31.04
2018-05-14T14:46:16.836Z,31.24
2018-05-14T14:48:45.194Z,30.76
2018-05-14T14:51:13.524Z,30.45
2018-05-14T14:53:42.681Z,29.84
2018-05-14T14:56:10.991Z,29.77
2018-05-14T14:58:40.066Z,30.26
2018-05-14T15:01:09.475Z,29.99
2018-05-14T15:03:37.794Z,29.77
2018-05-14T15:06:06.105Z,29.79
2018-05-14T15:08:34.461Z,30.08
2018-05-14T15:11:02.830Z,30.25
2018-05-14T15:13:31.139Z,30.08
2018-05-14T15:15:59.527Z,29.98
2018-05-14T15:18:27.832Z,30.19
2018-05-14T15:20:56.951Z,29.92
2018-05-14T15:23:25.858Z,30.08
2018-05-14T15:25:54.195Z,29.60
2018-05-14T15:28:23.273Z,29.83
2018-05-14T15:30:51.653Z,29.87
2018-05-14T15:33:20.003Z,30.08
2018-05-14T15:35:48.324Z,29.85
2018-05-14T15:38:16.701Z,29.84
2018-05-14T15:40:45.021Z,29.90
2018-05-14T15:43:13.355Z,29.73
2018-05-14T15:45:42.581Z,29.77
2018-05-14T15:48:11.698Z,29.94
2018-05-14T15:50:40.047Z,29.56
2018-05-14T15:53:09.170Z,29.76
2018-05-14T15:55:37.516Z,29.47
2018-05-14T15:58:05.841Z,29.52
2018-05-14T16:00:34.220Z,29.48
2018-05-14T16:03:02.603Z,29.71
2018-05-14T16:05:30.966Z,29.62
2018-05-14T16:07:59.978Z,29.70
2018-05-14T16:10:28.287Z,29.70
2018-05-14T16:12:56.636Z,29.41
2018-05-14T16:15:25.783Z,29.40
2018-05-14T16:17:54.933Z,29.43
2018-05-14T16:20:23.301Z,29.49
2018-05-14T16:22:51.648Z,29.48
2018-05-14T16:25:20.785Z,29.25
2018-05-14T16:27:49.295Z,29.27
2018-05-14T16:30:17.874Z,29.24
2018-05-14T16:32:47.031Z,28.82
2018-05-14T16:35:15.344Z,29.08
2018-05-14T16:37:43.702Z,29.27
2018-05-14T16:40:12.076Z,29.39
2018-05-14T16:42:40.412Z,29.48
2018-05-14T16:45:09.553Z,29.12
2018-05-14T16:47:37.875Z,29.24
2018-05-14T16:50:06.242Z,29.33
2018-05-14T16:52:35.049Z,29.30
2018-05-14T16:55:03.376Z,29.41
2018-05-14T16:57:31.700Z,29.20
2018-05-14T17:00:00.086Z,29.33
2018-05-14T17:02:28.403Z,29.14
2018-05-14T17:04:56.748Z,29.34
2018-05-14T17:07:25.146Z,29.00
2018-05-14T17:09:53.464Z,29.20
2018-05-14T17:12:21.783Z,29.36
2018-05-14T17:14:50.416Z,28.84
2018-05-14T17:17:18.816Z,28.83
2018-05-14T17:19:47.845Z,28.76
2018-05-14T17:22:16.236Z,28.69
2018-05-14T17:24:44.596Z,28.68
2018-05-14T17:27:12.936Z,28.51
2018-05-14T17:29:41.278Z,28.59
2018-05-14T17:32:09.603Z,28.54
2018-05-14T17:34:37.988Z,28.51
2018-05-14T17:37:07.763Z,28.53
2018-05-14T17:39:36.152Z,28.57
2018-05-14T17:42:04.523Z,28.43
2018-05-14T17:44:32.878Z,28.55
2018-05-14T17:47:02.108Z,28.30
2018-05-14T17:49:30.412Z,28.34
2018-05-14T17:51:58.771Z,28.11
2018-05-14T17:54:27.116Z,27.83
2018-05-14T17:56:55.441Z,28.05
2018-05-14T17:59:23.933Z,28.02
2018-05-14T18:01:52.246Z,28.12
2018-05-14T18:04:20.599Z,27.86
2018-05-14T18:06:48.947Z,27.51
2018-05-14T18:09:17.317Z,27.37
2018-05-14T18:11:45.662Z,27.63
2018-05-14T18:14:14.808Z,27.48
2018-05-14T18:16:43.147Z,27.45
2018-05-14T18:19:12.304Z,27.44
2018-05-14T18:21:48.582Z,27.24
2018-05-14T18:24:16.932Z,27.22
2018-05-14T18:26:46.178Z,27.13
2018-05-14T18:29:19.959Z,27.11
2018-05-14T18:31:53.848Z,26.96
2018-05-14T18:34:27.684Z,26.93
2018-05-14T18:36:56.852Z,26.76
2018-05-14T18:39:25.275Z,26.63
2018-05-14T18:41:53.965Z,26.80
2018-05-14T18:44:27.665Z,26.79
2018-05-14T18:46:56.089Z,26.42
2018-05-14T18:49:24.576Z,26.29
2018-05-14T18:51:52.973Z,26.49
2018-05-14T18:54:21.341Z,26.27
2018-05-14T18:56:49.691Z,26.25
2018-05-14T18:59:18.017Z,26.34
2018-05-14T19:01:46.871Z,26.32
2018-05-14T19:04:15.193Z,26.30
2018-05-14T19:06:43.559Z,26.26
2018-05-14T19:09:11.951Z,26.36
2018-05-14T19:11:45.866Z,26.27
2018-05-14T19:14:14.249Z,25.96
2018-05-14T19:16:48.070Z,25.81
2018-05-14T19:19:16.624Z,25.90
2018-05-14T19:21:45.016Z,25.97
2018-05-14T19:24:13.352Z,25.79
2018-05-14T19:26:41.736Z,25.73
2018-05-14T19:29:15.527Z,25.55
2018-05-14T19:31:44.013Z,25.53
2018-05-14T19:34:17.954Z,25.48
2018-05-14T19:36:46.512Z,25.34
2018-05-14T19:39:20.367Z,25.24
2018-05-14T19:41:48.848Z,25.18
2018-05-14T19:44:17.211Z,25.02
2018-05-14T19:46:45.520Z,25.02
2018-05-14T19:49:13.911Z,24.87
2018-05-14T19:51:43.070Z,24.90
2018-05-14T19:54:11.451Z,24.75
2018-05-14T19:56:40.124Z,24.67
2018-05-14T19:59:08.475Z,24.58
2018-05-14T20:01:36.827Z,24.51
2018-05-14T20:04:05.979Z,24.38
2018-05-14T20:06:34.332Z,24.25
2018-05-14T20:09:02.685Z,24.27
2018-05-14T20:11:31.048Z,24.33
2018-05-14T20:13:59.443Z,24.21
2018-05-14T20:16:27.752Z,24.29
2018-05-14T20:18:56.606Z,24.22
2018-05-14T20:21:24.932Z,24.22
2018-05-14T20:23:53.405Z,24.31
2018-05-14T20:26:21.750Z,24.28
2018-05-14T20:28:50.892Z,24.16
2018-05-14T20:31:19.308Z,24.06
2018-05-14T20:33:47.660Z,24.08
2018-05-14T20:36:16.010Z,24.04
2018-05-14T20:38:44.405Z,24.04
2018-05-14T20:41:12.827Z,24.01
2018-05-14T20:43:41.172Z,23.81
2018-05-14T20:46:09.502Z,23.79
2018-05-14T20:48:37.876Z,23.70
2018-05-14T20:51:06.254Z,23.39
2018-05-14T20:53:34.565Z,23.57
2018-05-14T20:56:02.924Z,23.51
2018-05-14T20:58:31.280Z,23.74
2018-05-14T21:00:59.684Z,23.69
2018-05-14T21:03:28.901Z,23.62
2018-05-14T21:05:57.972Z,23.59
2018-05-14T21:08:26.307Z,23.44
2018-05-14T21:10:54.653Z,23.26
2018-05-14T21:13:23.728Z,23.14
2018-05-14T21:15:52.813Z,23.15
2018-05-14T21:18:21.210Z,23.13
2018-05-14T21:20:50.305Z,23.16
2018-05-14T21:23:18.637Z,23.08
2018-05-14T21:25:47.637Z,23.03
2018-05-14T21:28:15.973Z,23.04
2018-05-14T21:30:44.324Z,22.96
2018-05-14T21:33:12.684Z,22.75
2018-05-14T21:35:41.035Z,22.85
2018-05-14T21:38:09.453Z,22.68
2018-05-14T21:40:37.811Z,22.59
2018-05-14T21:43:06.127Z,22.46
2018-05-14T21:45:35.228Z,22.58
2018-05-14T21:48:04.651Z,22.33
2018-05-14T21:50:33.051Z,22.26
2018-05-14T21:53:01.445Z,22.31
2018-05-14T21:55:29.824Z,22.40
2018-05-14T21:57:58.168Z,22.35
2018-05-14T22:00:26.507Z,22.13
2018-05-14T22:02:54.850Z,22.25
2018-05-14T22:05:23.162Z,22.08
2018-05-14T22:07:51.497Z,22.04
2018-05-14T22:10:20.167Z,21.99
2018-05-14T22:12:48.511Z,21.90
2018-05-14T22:15:16.859Z,21.67
2018-05-14T22:17:45.240Z,21.79
2018-05-14T22:20:13.560Z,21.86
2018-05-14T22:22:41.876Z,21.70
2018-05-14T22:25:10.256Z,21.55
2018-05-14T22:27:38.597Z,21.68
2018-05-14T22:30:06.925Z,21.62
2018-05-14T22:32:35.698Z,21.43
2018-05-14T22:35:04.015Z,21.60
2018-05-14T22:37:32.397Z,21.38
2018-05-14T22:40:00.719Z,21.36
2018-05-14T22:42:29.786Z,21.21
2018-05-14T22:44:58.099Z,21.24
2018-05-14T22:47:26.453Z,21.29
2018-05-14T22:49:55.532Z,21.26
2018-05-14T22:52:23.993Z,21.18
2018-05-14T22:54:52.430Z,21.19
2018-05-14T22:57:20.749Z,21.04
2018-05-14T22:59:49.083Z,21.02
2018-05-14T23:02:18.177Z,20.99
2018-05-14T23:04:47.259Z,20.99
2018-05-14T23:07:15.610Z,20.94
2018-05-14T23:09:44.014Z,20.97
2018-05-14T23:12:12.354Z,20.86
2018-05-14T23:14:40.674Z,20.73
2018-05-14T23:17:09.591Z,20.64
2018-05-14T23:19:37.923Z,20.65
2018-05-14T23:22:07.047Z,20.66
2018-05-14T23:24:36.177Z,20.68
2018-05-14T23:27:04.536Z,20.56
2018-05-14T23:29:32.887Z,20.49
2018-05-14T23:32:01.260Z,20.42
2018-05-14T23:34:29.596Z,20.43
2018-05-14T23:36:57.919Z,20.44
2018-05-14T23:39:26.352Z,20.51
2018-05-14T23:41:54.727Z,20.34
2018-05-14T23:44:23.426Z,20.18
2018-05-14T23:46:51.780Z,20.23
2018-05-14T23:49:21.110Z,20.35
2018-05-14T23:51:49.415Z,20.21
2018-05-14T23:54:17.792Z,20.16
2018-05-14T23:56:46.120Z,20.23
2018-05-14T23:59:14.438Z,20.16
